createdAt,value
2023-11-12T00:13:47.868Z,12.47
2023-11-12T01:03:11.151Z,14.25
2023-11-12T01:08:07.945Z,14.73
2023-11-12T01:13:08.148Z,14.73
2023-11-12T02:29:14.748Z,17.00
2023-11-12T02:34:11.162Z,17.58
2023-11-12T02:55:54.508Z,17.05
2023-11-12T03:00:50.809Z,16.38
2023-11-12T03:05:47.172Z,17.90
2023-11-12T03:45:43.092Z,14.63
2023-11-12T04:24:54.782Z,16.88
2023-11-12T04:29:52.463Z,19.45
2023-11-12T04:34:49.032Z,17.80
2023-11-12T04:39:45.685Z,21.42
2023-11-12T04:44:42.051Z,19.77
2023-11-12T07:13:12.936Z,19.13
2023-11-12T07:29:23.817Z,20.77
2023-11-12T07:34:20.204Z,21.42
2023-11-12T07:39:17.261Z,21.63
2023-11-12T07:44:13.978Z,21.33
2023-11-12T08:05:25.237Z,20.98
2023-11-12T08:25:50.168Z,22.20
2023-11-12T08:30:46.707Z,21.05
2023-11-12T08:35:43.650Z,21.63
2023-11-12T08:40:47.069Z,22.17
2023-11-12T08:45:44.331Z,21.70
2023-11-12T08:50:40.969Z,21.92
2023-11-12T08:55:38.786Z,21.60
2023-11-12T09:00:35.773Z,20.95
2023-11-12T09:05:36.674Z,20.60
2023-11-12T09:22:48.437Z,20.08
2023-11-12T09:27:46.273Z,19.05
2023-11-12T09:32:42.808Z,20.05
2023-11-12T10:00:37.336Z,17.70
2023-11-12T10:05:34.402Z,18.23
2023-11-12T10:16:33.033Z,17.02
2023-11-12T10:21:30.051Z,17.00
2023-11-12T10:26:33.184Z,17.17
2023-11-12T10:31:39.368Z,17.02
2023-11-12T10:36:36.012Z,14.65
2023-11-12T10:41:40.276Z,16.27
2023-11-12T10:46:39.615Z,15.63
2023-11-12T10:51:38.907Z,14.35
2023-11-12T10:56:36.021Z,15.75
2023-11-12T11:24:31.128Z,16.77
2023-11-12T11:29:28.497Z,17.00
2023-11-12T11:34:40.769Z,16.88
2023-11-12T11:39:38.234Z,15.65
2023-11-12T11:44:46.758Z,16.60
2023-11-12T11:49:52.240Z,15.00
2023-11-12T11:54:54.880Z,15.85
2023-11-12T11:59:51.735Z,15.32
2023-11-12T12:04:49.225Z,15.38
2023-11-12T12:09:45.575Z,13.93
2023-11-12T12:14:42.284Z,15.35
2023-11-12T12:19:38.625Z,14.75
2023-11-12T12:24:35.247Z,15.55
2023-11-12T12:29:32.805Z,14.98
2023-11-12T12:34:39.291Z,16.80
2023-11-12T12:56:03.382Z,14.93
2023-11-12T13:01:01.333Z,14.77
2023-11-12T13:05:58.763Z,14.77
2023-11-12T13:10:55.645Z,14.10
2023-11-12T13:15:52.344Z,14.43
2023-11-12T13:20:49.698Z,13.93
2023-11-12T13:25:49.271Z,13.90
2023-11-12T13:36:44.993Z,14.00
2023-11-12T14:06:13.661Z,13.00
2023-11-12T14:11:13.447Z,12.50
2023-11-12T14:16:13.552Z,13.18
2023-11-12T14:21:10.474Z,13.50
2023-11-12T14:26:07.751Z,15.05
2023-11-12T14:31:24.415Z,14.88
2023-11-12T14:36:20.794Z,13.93
2023-11-12T14:52:59.158Z,14.25
2023-11-12T14:57:56.623Z,13.65
2023-11-12T15:02:53.401Z,15.35
2023-11-12T15:07:50.473Z,14.57
2023-11-12T15:12:47.055Z,15.15
2023-11-12T15:17:43.916Z,16.45
2023-11-12T15:22:41.519Z,15.13
2023-11-12T15:27:37.867Z,15.82
2023-11-12T15:32:34.285Z,17.08
2023-11-12T15:59:42.973Z,16.70
2023-11-12T16:04:39.966Z,18.20
2023-11-12T16:09:36.367Z,17.67
2023-11-12T16:14:33.041Z,18.27
2023-11-12T16:19:29.352Z,18.45
2023-11-12T16:24:25.893Z,16.80
2023-11-12T16:35:11.997Z,18.17
2023-11-12T16:45:54.358Z,17.73
2023-11-12T16:50:50.754Z,17.58
2023-11-12T16:55:47.031Z,19.25
2023-11-12T17:00:52.074Z,18.58
2023-11-12T17:05:48.862Z,18.30
2023-11-12T17:10:46.767Z,20.58
2023-11-12T17:15:43.328Z,18.27
2023-11-12T20:52:38.253Z,24.10
2023-11-12T20:57:34.521Z,24.15
2023-11-12T21:02:31.487Z,25.38
2023-11-12T21:07:27.776Z,24.45
2023-11-12T21:12:24.039Z,26.20
2023-11-12T21:17:20.313Z,26.40
2023-11-12T21:22:16.731Z,27.95
2023-11-12T21:27:13.544Z,30.33
2023-11-12T21:32:10.450Z,28.23
2023-11-12T21:37:07.175Z,29.58
2023-11-12T21:42:04.721Z,28.98
2023-11-12T21:47:03.047Z,30.92
2023-11-12T21:51:59.843Z,30.85
2023-11-12T21:56:56.255Z,30.08
2023-11-12T22:01:52.836Z,30.90
2023-11-12T22:06:49.429Z,31.85
2023-11-12T22:11:46.080Z,30.17
2023-11-12T22:16:42.758Z,29.88
2023-11-12T22:21:40.246Z,30.05
2023-11-12T22:26:40.562Z,30.25
2023-11-12T22:31:36.946Z,29.85
2023-11-12T22:36:33.405Z,29.20
2023-11-12T22:41:29.686Z,26.23
2023-11-12T22:46:26.152Z,28.42
2023-11-12T22:51:22.553Z,27.17
2023-11-12T22:56:18.989Z,27.67
2023-11-12T23:01:16.700Z,26.05
2023-11-12T23:06:14.047Z,26.30
2023-11-12T23:11:12.042Z,27.38
2023-11-12T23:16:10.426Z,26.35
2023-11-12T23:21:09.774Z,26.08
2023-11-12T23:26:06.364Z,24.40
2023-11-12T23:31:03.198Z,26.67
2023-11-12T23:36:00.514Z,24.35
2023-11-12T23:40:57.331Z,24.15
2023-11-12T23:45:53.659Z,24.50
2023-11-12T23:50:49.989Z,24.48
2023-11-12T23:55:46.306Z,23.65
